Time;durP1;ratioP1;P1;durP2;ratioP2;P2;SDS_P1;SDS_P2;PMS_P1;PMS_P2;Temp;Humidity;BMP_temperature;BMP_pressure;BME280_temperature;BME280_humidity;BME280_pressure;Samples;Min_cycle;Max_cycle;Signal;HPM_P1;HPM_P2
2023/01/18 00:01:09;;;;;;;9.68;8.68;;;1.40;99.90;;;;;;5014425;28;20178;-74
2023/01/18 00:03:37;;;;;;;8.73;7.88;;;1.40;99.90;;;;;;5017066;28;20300;-74
2023/01/18 00:06:05;;;;;;;10.97;8.27;;;1.50;99.90;;;;;;5014090;28;20244;-73
2023/01/18 00:08:32;;;;;;;9.70;8.75;;;1.40;99.90;;;;;;5015428;28;20181;-74
2023/01/18 00:11:06;;;;;;;10.32;9.32;;;1.30;99.90;;;;;;5015864;28;20204;-71
2023/01/18 00:13:32;;;;;;;11.25;8.80;;;1.30;99.90;;;;;;5018352;28;20208;-73
2023/01/18 00:16:18;;;;;;;10.77;8.13;;;1.40;99.90;;;;;;5017149;28;20263;-72
2023/01/18 00:18:48;;;;;;;9.38;8.32;;;1.40;99.90;;;;;;5012502;28;20232;-73
2023/01/18 00:21:14;;;;;;;9.30;8.32;;;1.40;99.90;;;;;;5014748;28;20594;-73
2023/01/18 00:23:40;;;;;;;11.20;10.10;;;1.50;99.90;;;;;;5014780;28;20213;-73
2023/01/18 00:26:08;;;;;;;11.18;8.15;;;1.50;99.90;;;;;;5011695;28;20276;-73
2023/01/18 00:28:34;;;;;;;11.65;9.15;;;1.50;99.90;;;;;;5012245;28;20174;-73
2023/01/18 00:31:00;;;;;;;11.40;8.93;;;1.50;99.90;;;;;;5028215;28;20888;-73
2023/01/18 00:33:26;;;;;;;10.95;9.43;;;1.50;99.90;;;;;;5020275;28;20257;-74
2023/01/18 00:35:56;;;;;;;9.87;8.13;;;1.50;99.90;;;;;;5015929;28;20652;-73
2023/01/18 00:38:21;;;;;;;11.98;9.65;;;1.60;99.90;;;;;;5011837;28;20174;-73
2023/01/18 00:40:47;;;;;;;13.13;8.90;;;1.60;99.90;;;;;;5014290;28;20179;-73
2023/01/18 00:45:56;;;;;;;11.85;9.13;;;1.40;99.90;;;;;;5009019;28;20280;-74
2023/01/18 00:48:22;;;;;;;12.40;9.07;;;1.30;99.90;;;;;;5013871;28;20303;-74
2023/01/18 00:50:48;;;;;;;10.40;9.30;;;1.40;99.90;;;;;;5013965;28;20385;-74
2023/01/18 00:53:13;;;;;;;9.95;8.60;;;1.40;99.90;;;;;;5012996;28;20749;-73
2023/01/18 00:55:39;;;;;;;11.30;8.80;;;1.50;99.90;;;;;;5014820;28;20200;-74
2023/01/18 00:58:04;;;;;;;10.45;8.40;;;1.50;99.90;;;;;;5012278;28;20182;-74
2023/01/18 01:00:31;;;;;;;22.27;8.80;;;1.50;99.90;;;;;;5013282;28;20566;-73
2023/01/18 01:02:57;;;;;;;14.07;9.47;;;1.30;99.90;;;;;;5012271;28;20197;-75
2023/01/18 01:08:15;;;;;;;11.32;9.68;;;1.10;99.90;;;;;;5012293;28;20184;-73
2023/01/18 01:10:42;;;;;;;14.82;10.02;;;1.20;99.90;;;;;;5009735;28;20185;-74
2023/01/18 01:26:49;;;;;;;11.93;8.70;;;1.50;99.90;;;;;;5010178;28;20195;-74
2023/01/18 01:29:14;;;;;;;12.93;8.50;;;1.50;99.90;;;;;;5013567;28;20607;-74
2023/01/18 01:31:40;;;;;;;9.40;7.50;;;1.50;99.90;;;;;;5010569;28;20256;-74
2023/01/18 01:34:06;;;;;;;15.27;9.77;;;1.60;99.90;;;;;;5011487;28;20284;-74
2023/01/18 01:36:32;;;;;;;11.88;8.55;;;1.50;99.90;;;;;;5011050;28;20204;-74
2023/01/18 01:38:57;;;;;;;13.10;9.50;;;1.40;99.90;;;;;;5015818;28;20216;-74
2023/01/18 01:41:26;;;;;;;11.77;9.10;;;1.50;99.90;;;;;;5027908;28;20318;-74
2023/01/18 01:43:56;;;;;;;13.37;9.20;;;1.50;99.90;;;;;;5010280;28;20204;-73
2023/01/18 01:46:45;;;;;;;13.43;9.40;;;1.60;99.90;;;;;;5012228;28;20545;-73
2023/01/18 01:49:31;;;;;;;12.77;8.93;;;1.50;99.90;;;;;;5012518;28;20260;-74
2023/01/18 01:52:06;;;;;;;13.17;9.53;;;1.40;99.90;;;;;;5011478;28;20200;-74
2023/01/18 01:54:35;;;;;;;13.33;9.87;;;1.20;99.90;;;;;;5009766;28;20734;-74
2023/01/18 01:57:09;;;;;;;12.23;9.43;;;1.10;99.90;;;;;;5013749;28;20186;-73
2023/01/18 01:59:41;;;;;;;13.70;10.00;;;1.00;99.90;;;;;;5012060;28;20184;-73
2023/01/18 02:02:07;;;;;;;11.90;9.27;;;0.90;99.90;;;;;;5013922;28;20182;-73
2023/01/18 02:04:34;;;;;;;12.33;9.63;;;0.90;99.90;;;;;;5011606;28;20244;-74
2023/01/18 02:07:00;;;;;;;12.83;9.33;;;0.90;99.90;;;;;;5012133;28;20188;-74
2023/01/18 02:09:26;;;;;;;16.67;10.33;;;0.90;99.90;;;;;;5014250;28;20173;-74
2023/01/18 02:11:53;;;;;;;13.33;10.13;;;0.90;99.90;;;;;;5009779;28;20192;-75
2023/01/18 02:14:23;;;;;;;12.45;10.40;;;0.90;99.90;;;;;;5010304;28;20201;-74
2023/01/18 02:17:07;;;;;;;12.97;10.20;;;1.00;99.90;;;;;;5009817;28;20513;-74
2023/01/18 02:20:22;;;;;;;16.83;10.10;;;0.90;99.90;;;;;;5014548;28;20180;-74
2023/01/18 02:23:22;;;;;;;14.97;10.63;;;0.90;99.90;;;;;;5016193;28;20201;-74
2023/01/18 02:26:13;;;;;;;15.10;10.27;;;1.00;99.90;;;;;;5013047;28;20181;-74
2023/01/18 02:28:44;;;;;;;13.77;10.03;;;1.10;99.90;;;;;;5012298;28;20660;-74
2023/01/18 02:31:21;;;;;;;14.27;10.10;;;1.10;99.90;;;;;;5011580;28;20189;-74
2023/01/18 02:34:12;;;;;;;13.83;9.73;;;1.10;99.90;;;;;;5012790;28;20678;-74
2023/01/18 02:37:06;;;;;;;15.98;10.48;;;1.10;99.90;;;;;;5010657;28;20189;-75
2023/01/18 02:39:44;;;;;;;14.37;10.70;;;1.20;99.90;;;;;;5011131;28;20676;-75
2023/01/18 02:48:22;;;;;;;13.37;10.40;;;1.10;99.90;;;;;;5011646;28;20197;-73
2023/01/18 02:50:48;;;;;;;13.90;10.50;;;0.90;99.90;;;;;;5010866;28;20268;-73
2023/01/18 02:53:14;;;;;;;14.43;10.87;;;0.90;99.90;;;;;;5011006;28;20292;-73
2023/01/18 02:55:47;;;;;;;14.50;11.27;;;0.90;99.90;;;;;;5007397;28;20192;-73
2023/01/18 02:58:42;;;;;;;13.33;10.53;;;0.90;99.90;;;;;;5008857;28;20189;-73
2023/01/18 03:01:18;;;;;;;17.30;12.13;;;0.90;99.90;;;;;;5009965;28;20255;-73
2023/01/18 03:03:47;;;;;;;18.80;11.03;;;0.90;99.90;;;;;;5014333;28;20222;-74
2023/01/18 03:06:13;;;;;;;15.10;10.83;;;1.00;99.90;;;;;;5016685;28;20264;-74
2023/01/18 03:08:46;;;;;;;14.13;10.50;;;1.10;99.90;;;;;;5009549;28;20272;-74
2023/01/18 03:11:36;;;;;;;15.43;10.80;;;1.20;99.90;;;;;;5009681;28;20185;-73
2023/01/18 03:14:39;;;;;;;15.23;11.00;;;1.20;99.90;;;;;;5011047;28;20220;-74
2023/01/18 03:17:25;;;;;;;16.10;11.27;;;1.00;99.90;;;;;;5020514;28;20686;-74
2023/01/18 03:20:06;;;;;;;15.53;11.10;;;1.00;99.90;;;;;;5010582;28;20569;-73
2023/01/18 03:25:33;;;;;;;14.27;10.80;;;1.20;99.90;;;;;;5012185;28;20272;-73
2023/01/18 03:33:46;;;;;;;13.37;10.80;;;1.30;99.90;;;;;;5014762;28;20284;-72
2023/01/18 03:36:40;;;;;;;12.53;9.90;;;1.30;99.90;;;;;;5020706;28;20279;-73
2023/01/18 03:39:11;;;;;;;13.03;11.63;;;1.30;99.90;;;;;;5016451;28;20185;-72
2023/01/18 03:41:42;;;;;;;12.83;11.47;;;1.40;99.90;;;;;;5015807;28;20181;-72
2023/01/18 03:44:17;;;;;;;14.50;12.83;;;1.30;99.90;;;;;;5016130;28;20223;-72
2023/01/18 03:46:44;;;;;;;10.57;9.23;;;1.30;99.90;;;;;;5016865;28;20185;-72
2023/01/18 03:49:11;;;;;;;8.50;7.13;;;1.30;99.90;;;;;;5009028;28;20260;-72
2023/01/18 03:51:54;;;;;;;7.13;6.07;;;1.20;99.90;;;;;;5014735;28;20191;-73
2023/01/18 03:54:45;;;;;;;11.90;10.57;;;1.20;99.90;;;;;;5017640;28;20201;-72
2023/01/18 03:57:32;;;;;;;13.17;10.83;;;1.20;99.90;;;;;;5011292;28;20196;-73
2023/01/18 04:00:00;;;;;;;9.63;8.63;;;1.30;99.90;;;;;;5013102;28;20181;-72
2023/01/18 04:02:26;;;;;;;12.67;10.30;;;1.30;99.90;;;;;;5017606;28;20181;-72
2023/01/18 04:04:56;;;;;;;13.13;11.37;;;1.30;99.90;;;;;;5013927;28;20217;-71
2023/01/18 04:07:25;;;;;;;15.00;12.40;;;1.20;99.90;;;;;;5017972;28;20660;-72
2023/01/18 04:09:51;;;;;;;12.87;11.43;;;1.20;99.90;;;;;;5016012;28;20231;-73
2023/01/18 04:12:17;;;;;;;12.07;10.63;;;1.20;99.90;;;;;;5016303;28;20180;-72
2023/01/18 04:14:42;;;;;;;13.03;11.00;;;1.00;99.90;;;;;;5015062;28;20197;-72
2023/01/18 04:17:08;;;;;;;13.47;12.07;;;1.10;99.90;;;;;;5021659;28;20211;-73
2023/01/18 04:19:33;;;;;;;14.73;12.23;;;1.00;99.90;;;;;;5018291;28;20181;-73
2023/01/18 04:21:59;;;;;;;11.90;9.33;;;1.00;99.90;;;;;;5012242;28;20187;-73
2023/01/18 04:24:24;;;;;;;12.57;10.97;;;1.00;99.90;;;;;;5014626;28;20579;-72
2023/01/18 04:26:50;;;;;;;12.80;10.93;;;1.00;99.90;;;;;;5006579;28;20182;-73
2023/01/18 04:29:16;;;;;;;11.97;9.80;;;0.90;99.90;;;;;;5012223;28;20209;-73
2023/01/18 04:31:41;;;;;;;12.83;11.47;;;0.90;99.90;;;;;;5014225;28;20238;-72
2023/01/18 04:34:07;;;;;;;12.80;11.40;;;1.00;99.90;;;;;;5010060;28;20473;-72
2023/01/18 04:36:33;;;;;;;12.33;10.33;;;0.80;99.90;;;;;;5028620;28;20204;-72
2023/01/18 04:38:58;;;;;;;11.73;10.53;;;0.70;99.90;;;;;;5014019;28;20169;-71
2023/01/18 04:41:24;;;;;;;12.20;10.57;;;0.80;99.90;;;;;;5014231;28;20653;-74
2023/01/18 04:43:50;;;;;;;13.30;10.83;;;0.80;99.90;;;;;;5013182;28;20568;-74
2023/01/18 04:46:15;;;;;;;13.40;11.17;;;0.80;99.90;;;;;;5013728;28;20439;-73
2023/01/18 04:48:41;;;;;;;13.47;11.00;;;0.70;99.90;;;;;;5016288;28;20208;-73
2023/01/18 04:51:12;;;;;;;12.77;10.90;;;0.50;99.90;;;;;;5006488;28;20181;-72
2023/01/18 04:53:38;;;;;;;12.93;10.73;;;0.40;99.90;;;;;;5022061;28;20258;-73
2023/01/18 04:56:04;;;;;;;13.30;11.43;;;0.30;99.90;;;;;;5018175;28;20186;-73
2023/01/18 04:58:29;;;;;;;13.03;11.63;;;0.30;99.90;;;;;;5014040;28;20189;-72
2023/01/18 05:01:00;;;;;;;12.63;10.30;;;0.20;99.90;;;;;;5015645;28;20181;-72
2023/01/18 05:03:26;;;;;;;12.60;11.27;;;0.10;99.90;;;;;;5013437;28;20235;-73
2023/01/18 05:05:53;;;;;;;12.37;10.97;;;0.10;99.90;;;;;;5012718;28;20239;-73
2023/01/18 05:08:19;;;;;;;14.57;12.27;;;0.00;99.90;;;;;;5014055;28;20173;-73
2023/01/18 05:10:44;;;;;;;13.73;11.13;;;-0.20;99.90;;;;;;5015114;28;20319;-73
2023/01/18 05:13:10;;;;;;;18.23;12.97;;;-0.30;99.90;;;;;;5011586;28;20209;-73
2023/01/18 05:15:36;;;;;;;18.77;13.80;;;-0.20;99.90;;;;;;5010375;28;20185;-73
2023/01/18 05:18:01;;;;;;;15.63;12.60;;;-0.10;99.90;;;;;;5010608;28;20189;-74
2023/01/18 05:20:27;;;;;;;18.27;14.03;;;0.00;99.90;;;;;;5011490;28;20543;-72
2023/01/18 05:22:53;;;;;;;15.47;13.57;;;0.10;99.90;;;;;;5009163;28;21194;-73
2023/01/18 05:25:18;;;;;;;17.53;12.93;;;0.20;99.90;;;;;;5007249;28;20299;-72
2023/01/18 05:27:44;;;;;;;22.47;14.83;;;0.40;99.90;;;;;;5014890;28;20177;-73
2023/01/18 05:30:10;;;;;;;18.37;13.53;;;0.40;99.90;;;;;;5014636;28;20224;-76
2023/01/18 05:32:36;;;;;;;14.73;12.97;;;0.40;99.90;;;;;;5011532;28;20189;-73
2023/01/18 05:35:03;;;;;;;18.80;14.80;;;0.50;99.90;;;;;;5013351;28;20208;-74
2023/01/18 05:37:28;;;;;;;17.57;14.37;;;0.60;99.90;;;;;;5011003;28;20209;-71
2023/01/18 05:39:54;;;;;;;19.87;15.27;;;0.50;99.90;;;;;;5015129;28;20656;-73
2023/01/18 05:42:20;;;;;;;19.00;13.67;;;0.50;99.90;;;;;;5012468;28;20181;-75
2023/01/18 05:44:45;;;;;;;21.70;16.17;;;0.50;99.90;;;;;;5012485;28;20228;-73
2023/01/18 05:47:11;;;;;;;18.90;14.53;;;0.50;99.90;;;;;;5012263;28;20178;-72
2023/01/18 05:49:36;;;;;;;19.60;14.83;;;0.50;99.90;;;;;;5015262;28;20181;-73
2023/01/18 05:52:02;;;;;;;18.37;14.70;;;0.50;99.90;;;;;;5011255;28;20181;-72
2023/01/18 05:54:28;;;;;;;15.93;12.67;;;0.50;99.90;;;;;;5010738;28;20247;-72
2023/01/18 05:56:53;;;;;;;20.00;14.20;;;0.50;99.90;;;;;;5012717;28;20666;-73
2023/01/18 05:59:19;;;;;;;17.83;13.60;;;0.50;99.90;;;;;;5009823;28;20169;-73
2023/01/18 06:01:44;;;;;;;19.57;14.47;;;0.50;99.90;;;;;;5009059;28;20640;-75
2023/01/18 06:04:10;;;;;;;19.13;14.13;;;0.50;99.90;;;;;;5008589;28;20213;-73
2023/01/18 06:06:35;;;;;;;18.97;14.97;;;0.40;99.90;;;;;;5010824;28;20256;-73
2023/01/18 06:09:02;;;;;;;22.83;15.20;;;0.50;99.90;;;;;;5012940;28;20185;-73
2023/01/18 06:11:27;;;;;;;20.97;15.23;;;0.50;99.90;;;;;;5011188;28;20257;-73
2023/01/18 06:13:53;;;;;;;21.87;15.57;;;0.50;99.90;;;;;;5012926;28;20724;-73
2023/01/18 06:16:19;;;;;;;21.60;16.10;;;0.60;99.90;;;;;;5012200;28;20208;-73
2023/01/18 06:18:44;;;;;;;24.43;14.57;;;0.50;99.90;;;;;;5011064;28;20188;-73
2023/01/18 06:21:10;;;;;;;23.90;16.90;;;0.50;99.90;;;;;;5007293;28;20247;-72
2023/01/18 06:23:36;;;;;;;24.13;15.50;;;0.50;99.90;;;;;;5011134;28;20212;-73
2023/01/18 06:26:02;;;;;;;22.03;15.93;;;0.60;99.90;;;;;;5007629;28;20193;-72
2023/01/18 06:28:28;;;;;;;24.13;16.00;;;0.70;99.90;;;;;;5011491;28;20181;-72
2023/01/18 06:30:55;;;;;;;21.37;16.37;;;0.80;99.90;;;;;;5009837;28;20825;-72
2023/01/18 06:33:22;;;;;;;21.10;15.60;;;0.70;99.90;;;;;;5009039;28;20243;-72
2023/01/18 06:35:48;;;;;;;20.70;14.07;;;0.90;99.90;;;;;;5008311;28;20247;-73
2023/01/18 06:38:13;;;;;;;24.07;16.87;;;0.80;99.90;;;;;;5010840;28;20664;-73
2023/01/18 06:40:39;;;;;;;23.03;17.23;;;0.80;99.90;;;;;;5012157;28;20181;-73
2023/01/18 06:43:07;;;;;;;24.73;17.47;;;0.90;99.90;;;;;;5012329;28;20213;-73
2023/01/18 06:45:33;;;;;;;23.30;16.13;;;0.80;99.90;;;;;;5010863;28;20589;-76
2023/01/18 06:47:58;;;;;;;27.90;17.43;;;0.80;99.90;;;;;;5007405;28;20206;-75
2023/01/18 06:50:24;;;;;;;22.00;16.30;;;0.80;99.90;;;;;;5012656;28;20181;-74
2023/01/18 06:52:50;;;;;;;24.17;17.30;;;0.70;99.90;;;;;;5026859;28;20252;-75
2023/01/18 06:55:17;;;;;;;25.13;17.63;;;0.70;99.90;;;;;;5011252;28;20596;-76
2023/01/18 06:57:43;;;;;;;25.40;16.57;;;0.60;99.90;;;;;;5014323;28;20276;-76
2023/01/18 07:00:10;;;;;;;28.77;17.07;;;0.50;99.90;;;;;;5009718;28;20260;-76
2023/01/18 07:02:37;;;;;;;23.60;16.50;;;0.50;99.90;;;;;;5014238;28;20181;-75
2023/01/18 07:05:03;;;;;;;24.33;17.60;;;0.50;99.90;;;;;;5012136;28;20209;-75
2023/01/18 07:07:29;;;;;;;27.27;17.90;;;0.50;99.90;;;;;;5009972;28;20177;-74
2023/01/18 07:09:55;;;;;;;24.73;16.47;;;0.50;99.90;;;;;;5012106;28;20184;-74
2023/01/18 07:12:21;;;;;;;26.73;17.70;;;0.60;99.90;;;;;;5010973;28;20184;-74
2023/01/18 07:14:47;;;;;;;23.73;17.20;;;0.50;99.90;;;;;;5012039;28;20270;-74
2023/01/18 07:17:13;;;;;;;24.70;17.30;;;0.50;99.90;;;;;;5007451;28;20196;-72
2023/01/18 07:19:39;;;;;;;24.57;18.20;;;0.30;99.90;;;;;;5016052;28;20197;-72
2023/01/18 07:22:04;;;;;;;25.70;17.73;;;0.30;99.90;;;;;;5013217;28;20196;-73
2023/01/18 07:24:30;;;;;;;25.53;16.97;;;0.30;99.90;;;;;;5014921;28;20357;-72
2023/01/18 07:26:58;;;;;;;24.57;17.27;;;0.40;99.90;;;;;;5011765;28;20347;-72
2023/01/18 07:29:24;;;;;;;26.43;16.07;;;0.40;99.90;;;;;;5009232;28;20652;-72
2023/01/18 07:31:50;;;;;;;25.37;17.47;;;0.40;99.90;;;;;;5011165;28;20182;-73
2023/01/18 07:34:15;;;;;;;23.33;16.03;;;0.30;99.90;;;;;;5017209;28;20251;-73
2023/01/18 07:36:41;;;;;;;24.07;16.80;;;0.30;99.90;;;;;;5012535;28;20177;-72
2023/01/18 07:39:08;;;;;;;26.10;16.30;;;0.40;99.90;;;;;;5012489;28;20256;-71
2023/01/18 07:41:34;;;;;;;25.77;16.83;;;0.50;99.90;;;;;;5016637;28;20605;-74
2023/01/18 07:44:00;;;;;;;23.00;16.20;;;0.60;99.90;;;;;;5011460;28;20204;-71
2023/01/18 07:46:26;;;;;;;25.47;15.63;;;0.70;99.90;;;;;;5010416;28;20267;-74
2023/01/18 07:48:52;;;;;;;24.67;17.37;;;0.80;99.90;;;;;;5012982;28;20173;-73
2023/01/18 07:51:20;;;;;;;23.33;16.87;;;0.90;99.90;;;;;;5010405;28;20187;-73
2023/01/18 07:53:46;;;;;;;26.07;17.33;;;1.00;99.90;;;;;;5008082;28;20275;-73
2023/01/18 07:56:13;;;;;;;21.27;16.07;;;1.00;99.90;;;;;;5011882;28;20273;-72
2023/01/18 07:58:39;;;;;;;21.57;15.17;;;1.10;99.90;;;;;;5016096;28;20178;-72
2023/01/18 08:01:08;;;;;;;21.37;15.00;;;1.20;99.90;;;;;;5013678;28;20228;-72
2023/01/18 08:03:35;;;;;;;23.10;15.87;;;1.40;99.90;;;;;;5015489;28;20292;-74
2023/01/18 08:06:01;;;;;;;25.17;17.27;;;1.50;99.90;;;;;;5017490;28;20204;-78
2023/01/18 08:08:27;;;;;;;22.90;16.43;;;1.40;99.90;;;;;;5012283;28;20178;-75
2023/01/18 08:10:55;;;;;;;22.50;16.42;;;1.40;99.90;;;;;;5018621;28;20778;-76
2023/01/18 08:13:21;;;;;;;20.97;15.97;;;1.40;99.90;;;;;;5015553;28;20204;-77
2023/01/18 08:15:47;;;;;;;22.67;16.03;;;1.40;99.90;;;;;;5015492;28;20177;-77
2023/01/18 08:18:13;;;;;;;22.50;16.67;;;1.60;99.90;;;;;;5015877;28;20227;-76
2023/01/18 08:20:41;;;;;;;22.58;15.82;;;1.80;99.90;;;;;;5016169;28;20524;-76
2023/01/18 08:23:07;;;;;;;24.25;17.52;;;1.90;99.90;;;;;;5010299;28;20694;-75
2023/01/18 08:25:32;;;;;;;21.63;16.10;;;1.90;99.90;;;;;;5014511;28;20201;-73
2023/01/18 08:28:01;;;;;;;20.83;15.57;;;2.00;99.90;;;;;;5016735;28;20696;-73
2023/01/18 08:30:30;;;;;;;22.63;16.95;;;2.00;99.90;;;;;;5012723;28;20180;-73
2023/01/18 08:32:57;;;;;;;22.35;17.00;;;2.20;99.90;;;;;;5016182;28;20200;-75
2023/01/18 08:35:29;;;;;;;23.77;17.10;;;2.40;99.90;;;;;;5015280;28;20671;-75
2023/01/18 08:37:55;;;;;;;19.90;15.95;;;2.80;99.90;;;;;;5012763;28;20191;-75
2023/01/18 08:40:22;;;;;;;17.73;14.45;;;3.00;99.90;;;;;;5012965;28;20193;-75
2023/01/18 08:42:48;;;;;;;20.05;15.40;;;3.20;99.90;;;;;;5016155;28;20197;-75
2023/01/18 08:45:14;;;;;;;23.40;17.20;;;3.30;99.90;;;;;;5013652;28;20224;-73
2023/01/18 08:47:40;;;;;;;22.15;16.13;;;3.30;99.90;;;;;;5014466;28;20208;-75
2023/01/18 08:50:07;;;;;;;21.77;14.90;;;3.30;99.90;;;;;;5013200;28;20185;-74
2023/01/18 08:52:36;;;;;;;25.13;16.35;;;3.40;99.90;;;;;;5007635;28;20636;-73
2023/01/18 08:55:05;;;;;;;20.20;14.88;;;3.50;99.90;;;;;;5011399;28;20178;-72
2023/01/18 08:57:32;;;;;;;20.95;16.00;;;3.30;99.90;;;;;;5013526;28;20187;-73
2023/01/18 08:59:58;;;;;;;23.80;16.73;;;3.20;99.90;;;;;;5013776;28;20185;-72
2023/01/18 09:02:24;;;;;;;20.77;15.00;;;2.90;99.90;;;;;;5013062;28;20193;-72
2023/01/18 09:04:50;;;;;;;21.67;15.00;;;2.70;99.90;;;;;;5012396;28;20209;-73
2023/01/18 09:07:16;;;;;;;20.00;14.68;;;2.70;99.90;;;;;;5011020;28;20200;-73
2023/01/18 09:09:43;;;;;;;19.00;13.52;;;2.60;99.90;;;;;;5014011;28;20645;-74
2023/01/18 09:12:10;;;;;;;18.85;14.05;;;2.60;99.90;;;;;;5014710;28;20276;-73
2023/01/18 09:14:35;;;;;;;20.15;15.35;;;2.90;99.90;;;;;;5014775;28;20234;-73
2023/01/18 09:17:01;;;;;;;17.27;13.88;;;3.20;99.90;;;;;;5014384;28;20189;-73
2023/01/18 09:19:27;;;;;;;17.38;13.02;;;3.50;99.90;;;;;;5012366;28;20244;-73
2023/01/18 09:21:52;;;;;;;14.15;12.05;;;3.60;99.90;;;;;;5014017;28;20566;-73
2023/01/18 09:24:18;;;;;;;13.57;11.57;;;3.60;99.90;;;;;;5013128;28;20213;-72
2023/01/18 09:26:45;;;;;;;16.08;12.65;;;3.70;99.90;;;;;;5010784;28;20687;-73
2023/01/18 09:29:10;;;;;;;16.40;12.05;;;3.80;99.90;;;;;;5017454;28;20169;-72
2023/01/18 09:31:36;;;;;;;15.85;12.55;;;4.00;99.90;;;;;;5014653;28;20207;-73
2023/01/18 09:34:01;;;;;;;16.33;13.15;;;4.00;99.90;;;;;;5017303;28;20205;-73
2023/01/18 09:36:27;;;;;;;16.58;12.20;;;3.90;99.90;;;;;;5014648;28;20181;-73
2023/01/18 09:38:54;;;;;;;15.35;12.18;;;3.70;99.90;;;;;;5011395;28;20800;-75
2023/01/18 09:41:31;;;;;;;15.63;11.95;;;3.60;99.90;;;;;;5011850;28;20264;-76
2023/01/18 09:44:07;;;;;;;14.75;12.25;;;3.60;99.90;;;;;;5014803;28;20778;-75
2023/01/18 09:46:36;;;;;;;17.73;14.32;;;3.30;99.90;;;;;;5015807;28;20193;-74
2023/01/18 09:49:05;;;;;;;17.65;13.18;;;3.10;99.90;;;;;;5011541;28;20221;-74
2023/01/18 09:51:47;;;;;;;14.75;12.65;;;2.90;99.90;;;;;;5011431;28;20177;-74
2023/01/18 09:54:24;;;;;;;16.83;13.63;;;2.90;99.90;;;;;;5005455;28;20235;-72
2023/01/18 09:57:24;;;;;;;18.27;14.02;;;2.90;99.90;;;;;;5012203;28;20191;-71
2023/01/18 09:59:56;;;;;;;18.10;12.98;;;2.90;99.90;;;;;;5009130;28;22396;-72
2023/01/18 10:02:28;;;;;;;16.20;12.95;;;2.70;99.90;;;;;;5013478;28;20177;-73
2023/01/18 10:05:01;;;;;;;16.17;11.85;;;2.60;99.90;;;;;;5015462;28;20219;-73
2023/01/18 10:07:29;;;;;;;15.10;11.95;;;2.70;99.90;;;;;;5014444;28;20185;-72
2023/01/18 10:09:58;;;;;;;13.50;11.90;;;2.60;99.90;;;;;;5014631;28;20189;-73
2023/01/18 10:12:42;;;;;;;17.13;12.88;;;2.40;99.90;;;;;;5014622;28;20174;-73
2023/01/18 10:15:19;;;;;;;14.27;11.65;;;2.20;99.90;;;;;;5014956;28;20189;-72
2023/01/18 10:17:46;;;;;;;13.35;11.68;;;2.30;99.90;;;;;;5015770;28;20200;-73
2023/01/18 10:20:14;;;;;;;14.63;11.98;;;2.30;99.90;;;;;;5013173;28;20192;-73
2023/01/18 10:22:51;;;;;;;13.48;11.27;;;2.40;99.90;;;;;;5028878;28;20209;-77
2023/01/18 10:25:35;;;;;;;14.20;11.88;;;2.60;99.90;;;;;;5025679;28;20296;-76
2023/01/18 10:28:14;;;;;;;16.55;13.25;;;2.60;99.90;;;;;;5012244;28;20408;-74
2023/01/18 10:30:56;;;;;;;16.17;12.38;;;2.70;99.90;;;;;;5008663;28;20185;-73
2023/01/18 10:33:29;;;;;;;15.48;11.73;;;2.90;99.90;;;;;;5012802;28;20205;-72
2023/01/18 10:35:59;;;;;;;13.18;10.68;;;3.10;99.90;;;;;;5011067;28;20180;-76
2023/01/18 10:38:27;;;;;;;13.05;11.43;;;3.30;99.90;;;;;;5008196;28;20177;-74
2023/01/18 10:40:59;;;;;;;14.68;12.30;;;3.50;99.90;;;;;;5014173;28;20726;-75
2023/01/18 10:43:26;;;;;;;14.13;11.75;;;3.60;99.90;;;;;;5011204;28;20198;-73
2023/01/18 10:45:52;;;;;;;13.13;11.73;;;3.60;99.90;;;;;;5013034;28;20209;-74
2023/01/18 10:48:29;;;;;;;13.68;10.68;;;3.70;99.90;;;;;;5012537;28;20181;-74
2023/01/18 10:50:58;;;;;;;14.52;11.55;;;3.70;99.90;;;;;;5012444;28;20169;-74
2023/01/18 10:53:27;;;;;;;15.30;12.63;;;3.90;99.90;;;;;;5013981;28;20625;-74
2023/01/18 10:56:06;;;;;;;15.18;12.52;;;4.10;99.90;;;;;;5013972;28;20652;-75
2023/01/18 10:58:36;;;;;;;12.95;11.30;;;4.10;99.90;;;;;;5012136;28;20185;-75
2023/01/18 11:01:02;;;;;;;12.13;10.82;;;4.20;99.90;;;;;;5012629;28;20265;-75
2023/01/18 11:03:34;;;;;;;13.20;11.77;;;4.20;99.90;;;;;;5007600;28;20609;-77
2023/01/18 11:06:03;;;;;;;13.85;11.38;;;4.40;99.90;;;;;;5012509;28;20209;-76
2023/01/18 11:08:32;;;;;;;12.63;11.30;;;4.50;99.90;;;;;;5009367;28;20185;-75
2023/01/18 11:11:11;;;;;;;13.00;11.50;;;4.50;99.90;;;;;;5012678;28;20200;-75
2023/01/18 11:13:42;;;;;;;12.48;11.18;;;4.30;99.90;;;;;;5011937;28;20575;-76
2023/01/18 11:16:19;;;;;;;15.43;11.57;;;3.90;99.90;;;;;;5009767;28;20178;-75
2023/01/18 11:18:59;;;;;;;13.48;11.48;;;3.80;99.90;;;;;;5014150;28;20637;-75
2023/01/18 11:21:42;;;;;;;13.20;11.68;;;3.80;99.90;;;;;;5008453;28;20185;-74
2023/01/18 11:24:14;;;;;;;13.75;11.68;;;4.00;99.90;;;;;;5008653;28;20232;-75
2023/01/18 11:27:13;;;;;;;13.15;11.75;;;4.00;99.90;;;;;;5017623;28;20605;-75
2023/01/18 11:29:44;;;;;;;10.82;9.73;;;4.10;99.90;;;;;;5003083;28;20186;-76
2023/01/18 11:32:27;;;;;;;11.45;10.25;;;4.00;99.90;;;;;;5011474;28;20717;-75
2023/01/18 11:34:56;;;;;;;12.90;11.57;;;3.90;99.90;;;;;;5009158;28;20199;-77
2023/01/18 11:37:33;;;;;;;12.35;11.05;;;3.70;99.90;;;;;;5019489;28;20576;-73
2023/01/18 11:40:32;;;;;;;13.75;11.75;;;3.50;99.90;;;;;;5016718;28;20193;-73
2023/01/18 11:43:03;;;;;;;12.60;11.05;;;3.30;99.90;;;;;;5016662;28;20231;-74
2023/01/18 11:45:47;;;;;;;12.23;10.90;;;3.40;99.90;;;;;;5014149;28;20209;-74
2023/01/18 11:48:27;;;;;;;12.32;10.77;;;3.40;99.90;;;;;;5018572;28;20260;-74
2023/01/18 11:51:06;;;;;;;12.65;10.27;;;3.30;99.90;;;;;;5018058;28;20165;-76
2023/01/18 11:53:45;;;;;;;12.38;11.07;;;3.10;99.90;;;;;;5019647;28;20200;-74
2023/01/18 11:56:19;;;;;;;13.80;11.23;;;3.00;99.90;;;;;;5011741;28;20184;-74
2023/01/18 11:58:45;;;;;;;12.30;10.77;;;2.80;99.90;;;;;;5013274;28;20589;-75
2023/01/18 12:01:20;;;;;;;16.85;13.27;;;2.80;99.90;;;;;;5010533;28;20327;-75
2023/01/18 12:03:55;;;;;;;12.15;10.77;;;2.80;99.90;;;;;;5014943;28;20676;-75
2023/01/18 12:06:31;;;;;;;12.90;10.13;;;3.00;99.90;;;;;;5018899;28;20196;-73
2023/01/18 12:09:11;;;;;;;14.68;11.95;;;3.20;99.90;;;;;;5013496;28;20184;-72
2023/01/18 12:12:00;;;;;;;13.23;10.93;;;3.30;99.90;;;;;;5008835;28;20181;-72
2023/01/18 12:14:43;;;;;;;12.80;9.45;;;3.30;99.90;;;;;;5011946;28;20208;-74
2023/01/18 12:17:29;;;;;;;12.85;11.57;;;3.40;99.90;;;;;;5006982;28;20185;-74
2023/01/18 12:20:27;;;;;;;14.00;12.45;;;3.40;99.90;;;;;;5015238;28;20271;-74
2023/01/18 12:22:59;;;;;;;14.25;11.10;;;3.50;99.90;;;;;;5015237;28;20212;-75
2023/01/18 12:25:47;;;;;;;12.35;9.98;;;3.40;99.90;;;;;;5011289;28;20608;-74
2023/01/18 12:28:18;;;;;;;11.50;9.95;;;3.40;99.90;;;;;;5016433;28;20196;-70
2023/01/18 12:30:44;;;;;;;12.63;6.38;;;3.50;99.90;;;;;;5015918;28;20188;-76
2023/01/18 12:33:48;;;;;;;13.57;11.07;;;3.50;99.90;;;;;;5016285;28;20296;-73
2023/01/18 12:36:44;;;;;;;9.25;8.35;;;3.60;99.90;;;;;;5012515;28;20648;-73
2023/01/18 12:39:23;;;;;;;6.05;5.45;;;3.60;99.90;;;;;;5014482;28;20199;-73
2023/01/18 12:41:58;;;;;;;5.63;5.03;;;3.50;99.90;;;;;;5028213;28;20266;-72
2023/01/18 12:44:40;;;;;;;5.07;4.60;;;3.50;99.90;;;;;;5017037;28;20207;-73
2023/01/18 12:47:14;;;;;;;5.20;4.80;;;3.30;99.90;;;;;;5027344;28;20236;-72
2023/01/18 12:49:46;;;;;;;3.97;3.67;;;3.20;99.90;;;;;;5012276;28;20172;-73
2023/01/18 12:52:15;;;;;;;5.25;4.70;;;3.20;99.90;;;;;;5014640;28;20270;-73
2023/01/18 12:54:45;;;;;;;5.72;4.95;;;3.00;99.90;;;;;;5011914;28;20197;-70
2023/01/18 12:57:12;;;;;;;5.45;4.43;;;3.00;99.90;;;;;;5012836;28;20188;-72
2023/01/18 12:59:44;;;;;;;4.07;3.58;;;3.10;99.90;;;;;;5012403;28;20192;-74
2023/01/18 13:02:31;;;;;;;6.25;4.10;;;3.20;99.90;;;;;;5013065;28;20189;-73
2023/01/18 13:05:12;;;;;;;4.70;4.07;;;3.20;99.90;;;;;;5013606;28;20639;-71
2023/01/18 13:07:41;;;;;;;4.60;4.03;;;3.40;99.90;;;;;;5011036;28;20180;-73
2023/01/18 13:10:18;;;;;;;4.15;3.85;;;3.30;99.90;;;;;;5012256;28;20183;-72
2023/01/18 13:12:45;;;;;;;5.43;3.92;;;3.50;99.90;;;;;;5013381;28;20236;-72
2023/01/18 13:15:37;;;;;;;2.88;2.70;;;3.90;99.90;;;;;;5013869;28;20181;-73
2023/01/18 13:18:22;;;;;;;4.07;3.67;;;4.10;99.90;;;;;;5014536;28;20224;-72
2023/01/18 13:21:31;;;;;;;3.10;2.90;;;4.10;99.90;;;;;;5014547;28;20185;-72
2023/01/18 13:24:15;;;;;;;3.13;2.92;;;4.10;99.90;;;;;;5008099;28;20213;-72
2023/01/18 13:26:41;;;;;;;3.80;3.50;;;4.00;99.90;;;;;;5010203;28;20203;-72
2023/01/18 13:29:28;;;;;;;4.00;3.60;;;3.80;99.90;;;;;;5008624;28;20264;-72
2023/01/18 13:31:55;;;;;;;3.92;3.60;;;3.70;99.90;;;;;;5014052;28;20177;-72
2023/01/18 13:34:30;;;;;;;3.78;3.47;;;3.50;99.90;;;;;;5008732;28;20284;-72